sensor_id;sensor_type;location;lat;lon;timestamp;temperature;humidity
12386;DHT22;6257;57.634;18.310;2023-04-01T00:02:12;-0.10;99.90
12386;DHT22;6257;57.634;18.310;2023-04-01T00:04:40;-0.30;99.90
12386;DHT22;6257;57.634;18.310;2023-04-01T00:07:08;-0.20;99.90
12386;DHT22;6257;57.634;18.310;2023-04-01T00:09:36;-0.10;99.90
12386;DHT22;6257;57.634;18.310;2023-04-01T00:12:03;-0.30;99.90
12386;DHT22;6257;57.634;18.310;2023-04-01T00:14:30;-0.40;99.90
12386;DHT22;6257;57.634;18.310;2023-04-01T00:16:57;-0.40;99.90
12386;DHT22;6257;57.634;18.310;2023-04-01T00:19:24;-0.50;99.90
12386;DHT22;6257;57.634;18.310;2023-04-01T00:21:52;-0.50;99.90
12386;DHT22;6257;57.634;18.310;2023-04-01T00:24:20;-0.50;99.90
12386;DHT22;6257;57.634;18.310;2023-04-01T00:26:47;-0.50;99.90
12386;DHT22;6257;57.634;18.310;2023-04-01T00:29:15;-0.50;99.90
12386;DHT22;6257;57.634;18.310;2023-04-01T00:31:42;-0.20;99.90
12386;DHT22;6257;57.634;18.310;2023-04-01T00:34:09;-0.40;99.90
12386;DHT22;6257;57.634;18.310;2023-04-01T00:36:36;-0.60;99.90
12386;DHT22;6257;57.634;18.310;2023-04-01T00:39:04;-0.60;99.90
12386;DHT22;6257;57.634;18.310;2023-04-01T00:41:32;-0.50;99.90
12386;DHT22;6257;57.634;18.310;2023-04-01T00:44:15;-0.60;99.90
12386;DHT22;6257;57.634;18.310;2023-04-01T00:46:43;0.00;99.90
12386;DHT22;6257;57.634;18.310;2023-04-01T00:49:10;-0.30;99.90
12386;DHT22;6257;57.634;18.310;2023-04-01T00:51:39;-0.70;99.90
12386;DHT22;6257;57.634;18.310;2023-04-01T00:54:08;-0.30;99.90
12386;DHT22;6257;57.634;18.310;2023-04-01T00:56:39;-0.70;99.90
12386;DHT22;6257;57.634;18.310;2023-04-01T00:59:13;-0.70;99.90
12386;DHT22;6257;57.634;18.310;2023-04-01T01:01:41;-0.70;99.90
12386;DHT22;6257;57.634;18.310;2023-04-01T01:04:27;-0.80;99.90
12386;DHT22;6257;57.634;18.310;2023-04-01T01:07:03;-0.50;99.90
12386;DHT22;6257;57.634;18.310;2023-04-01T01:09:41;-0.80;99.90
12386;DHT22;6257;57.634;18.310;2023-04-01T01:12:14;-0.90;99.90
12386;DHT22;6257;57.634;18.310;2023-04-01T01:14:53;-0.40;99.90
12386;DHT22;6257;57.634;18.310;2023-04-01T01:17:29;-0.90;99.90
12386;DHT22;6257;57.634;18.310;2023-04-01T01:23:44;-0.90;99.90
12386;DHT22;6257;57.634;18.310;2023-04-01T01:26:39;-0.90;99.90
12386;DHT22;6257;57.634;18.310;2023-04-01T01:31:52;-0.90;99.90
12386;DHT22;6257;57.634;18.310;2023-04-01T01:34:24;-1.00;99.90
12386;DHT22;6257;57.634;18.310;2023-04-01T01:36:59;-0.90;99.90
12386;DHT22;6257;57.634;18.310;2023-04-01T01:39:30;-1.10;99.90
12386;DHT22;6257;57.634;18.310;2023-04-01T01:42:01;-1.10;99.90
12386;DHT22;6257;57.634;18.310;2023-04-01T01:44:30;-1.10;99.90
12386;DHT22;6257;57.634;18.310;2023-04-01T01:46:58;-1.10;99.90
12386;DHT22;6257;57.634;18.310;2023-04-01T01:49:27;-1.20;99.90
12386;DHT22;6257;57.634;18.310;2023-04-01T01:51:58;-1.20;99.90
12386;DHT22;6257;57.634;18.310;2023-04-01T01:54:25;-1.10;99.90
12386;DHT22;6257;57.634;18.310;2023-04-01T01:56:58;-1.10;99.90
12386;DHT22;6257;57.634;18.310;2023-04-01T01:59:29;-1.10;99.90
12386;DHT22;6257;57.634;18.310;2023-04-01T02:01:56;-0.90;99.90
12386;DHT22;6257;57.634;18.310;2023-04-01T02:04:24;-1.10;99.90
12386;DHT22;6257;57.634;18.310;2023-04-01T02:06:55;-0.80;99.90
12386;DHT22;6257;57.634;18.310;2023-04-01T02:09:24;-1.10;99.90
12386;DHT22;6257;57.634;18.310;2023-04-01T02:11:55;-0.80;99.90
12386;DHT22;6257;57.634;18.310;2023-04-01T02:14:25;-0.70;99.90
12386;DHT22;6257;57.634;18.310;2023-04-01T02:16:56;-0.40;99.90
12386;DHT22;6257;57.634;18.310;2023-04-01T02:19:27;-1.10;99.90
12386;DHT22;6257;57.634;18.310;2023-04-01T02:21:59;-1.10;99.90
12386;DHT22;6257;57.634;18.310;2023-04-01T02:24:31;-1.10;99.90
12386;DHT22;6257;57.634;18.310;2023-04-01T02:26:59;-1.10;99.90
12386;DHT22;6257;57.634;18.310;2023-04-01T02:29:27;-1.10;99.90
12386;DHT22;6257;57.634;18.310;2023-04-01T02:31:54;-1.20;99.90
12386;DHT22;6257;57.634;18.310;2023-04-01T02:34:22;-0.70;99.90
12386;DHT22;6257;57.634;18.310;2023-04-01T02:36:50;-1.20;99.90
12386;DHT22;6257;57.634;18.310;2023-04-01T02:39:19;-0.70;99.90
12386;DHT22;6257;57.634;18.310;2023-04-01T02:41:47;-1.10;99.90
12386;DHT22;6257;57.634;18.310;2023-04-01T02:44:15;-1.10;99.90
12386;DHT22;6257;57.634;18.310;2023-04-01T02:46:42;-1.20;99.90
12386;DHT22;6257;57.634;18.310;2023-04-01T02:49:09;-1.20;99.90
12386;DHT22;6257;57.634;18.310;2023-04-01T02:51:36;-1.20;99.90
12386;DHT22;6257;57.634;18.310;2023-04-01T02:54:04;-1.20;99.90
12386;DHT22;6257;57.634;18.310;2023-04-01T02:56:31;-1.10;99.90
12386;DHT22;6257;57.634;18.310;2023-04-01T02:58:59;-1.10;99.90
12386;DHT22;6257;57.634;18.310;2023-04-01T03:01:26;-0.80;99.90
12386;DHT22;6257;57.634;18.310;2023-04-01T03:03:53;-1.20;99.90
12386;DHT22;6257;57.634;18.310;2023-04-01T03:06:21;-1.20;99.90
12386;DHT22;6257;57.634;18.310;2023-04-01T03:08:48;-1.20;99.90
12386;DHT22;6257;57.634;18.310;2023-04-01T03:11:15;-1.20;99.90
12386;DHT22;6257;57.634;18.310;2023-04-01T03:13:42;-1.20;99.90
12386;DHT22;6257;57.634;18.310;2023-04-01T03:16:10;-1.10;99.90
12386;DHT22;6257;57.634;18.310;2023-04-01T03:18:37;-1.30;99.90
12386;DHT22;6257;57.634;18.310;2023-04-01T03:21:15;-1.30;99.90
12386;DHT22;6257;57.634;18.310;2023-04-01T03:23:42;-1.30;99.90
12386;DHT22;6257;57.634;18.310;2023-04-01T03:26:09;-1.20;99.90
12386;DHT22;6257;57.634;18.310;2023-04-01T03:28:37;-1.20;99.90
12386;DHT22;6257;57.634;18.310;2023-04-01T03:31:04;-1.20;99.90
12386;DHT22;6257;57.634;18.310;2023-04-01T03:33:33;-1.30;99.90
12386;DHT22;6257;57.634;18.310;2023-04-01T03:36:00;-1.30;99.90
12386;DHT22;6257;57.634;18.310;2023-04-01T03:38:28;-1.30;99.90
12386;DHT22;6257;57.634;18.310;2023-04-01T03:40:55;-1.20;99.90
12386;DHT22;6257;57.634;18.310;2023-04-01T03:43:22;-1.20;99.90
12386;DHT22;6257;57.634;18.310;2023-04-01T03:45:50;-1.20;99.90
12386;DHT22;6257;57.634;18.310;2023-04-01T03:48:18;-1.20;99.90
12386;DHT22;6257;57.634;18.310;2023-04-01T03:50:47;-0.40;99.90
12386;DHT22;6257;57.634;18.310;2023-04-01T03:53:14;-1.10;99.90
12386;DHT22;6257;57.634;18.310;2023-04-01T03:55:42;-1.10;99.90
12386;DHT22;6257;57.634;18.310;2023-04-01T03:58:12;-1.10;99.90
12386;DHT22;6257;57.634;18.310;2023-04-01T04:00:39;-1.10;99.90
12386;DHT22;6257;57.634;18.310;2023-04-01T04:03:06;-1.10;99.90
12386;DHT22;6257;57.634;18.310;2023-04-01T04:05:33;-1.10;99.90
12386;DHT22;6257;57.634;18.310;2023-04-01T04:08:03;-1.10;99.90
12386;DHT22;6257;57.634;18.310;2023-04-01T04:10:30;-1.00;99.90
12386;DHT22;6257;57.634;18.310;2023-04-01T04:12:57;-0.40;99.90
12386;DHT22;6257;57.634;18.310;2023-04-01T04:15:24;-1.00;99.90
12386;DHT22;6257;57.634;18.310;2023-04-01T04:17:52;-0.60;99.90
12386;DHT22;6257;57.634;18.310;2023-04-01T04:20:19;-0.70;99.90
12386;DHT22;6257;57.634;18.310;2023-04-01T04:22:46;-1.00;99.90
12386;DHT22;6257;57.634;18.310;2023-04-01T04:25:15;-0.90;99.90
12386;DHT22;6257;57.634;18.310;2023-04-01T04:27:42;-1.00;99.90
12386;DHT22;6257;57.634;18.310;2023-04-01T04:30:10;-1.00;99.90
12386;DHT22;6257;57.634;18.310;2023-04-01T04:32:37;-1.00;99.90
12386;DHT22;6257;57.634;18.310;2023-04-01T04:35:05;-1.00;99.90
12386;DHT22;6257;57.634;18.310;2023-04-01T04:37:32;-1.00;99.90
12386;DHT22;6257;57.634;18.310;2023-04-01T04:39:59;-0.90;99.90
12386;DHT22;6257;57.634;18.310;2023-04-01T04:42:28;-0.90;99.90
12386;DHT22;6257;57.634;18.310;2023-04-01T04:44:55;-0.40;99.90
12386;DHT22;6257;57.634;18.310;2023-04-01T04:47:22;-0.80;99.90
12386;DHT22;6257;57.634;18.310;2023-04-01T04:49:49;-0.80;99.90
12386;DHT22;6257;57.634;18.310;2023-04-01T04:52:16;-0.80;99.90
12386;DHT22;6257;57.634;18.310;2023-04-01T04:54:43;-0.70;99.90
12386;DHT22;6257;57.634;18.310;2023-04-01T04:57:10;-0.60;99.90
12386;DHT22;6257;57.634;18.310;2023-04-01T04:59:38;-0.70;99.90
12386;DHT22;6257;57.634;18.310;2023-04-01T05:02:06;-0.60;99.90
12386;DHT22;6257;57.634;18.310;2023-04-01T05:04:34;-0.60;99.90
12386;DHT22;6257;57.634;18.310;2023-04-01T05:07:02;-0.40;99.90
12386;DHT22;6257;57.634;18.310;2023-04-01T05:09:29;-0.10;99.90
12386;DHT22;6257;57.634;18.310;2023-04-01T05:11:56;0.30;99.90
12386;DHT22;6257;57.634;18.310;2023-04-01T05:14:23;0.50;99.90
12386;DHT22;6257;57.634;18.310;2023-04-01T05:16:52;0.70;99.90
12386;DHT22;6257;57.634;18.310;2023-04-01T05:19:19;0.70;99.90
12386;DHT22;6257;57.634;18.310;2023-04-01T05:21:46;1.30;99.90
12386;DHT22;6257;57.634;18.310;2023-04-01T05:24:14;0.70;99.90
12386;DHT22;6257;57.634;18.310;2023-04-01T05:26:41;0.50;99.90
12386;DHT22;6257;57.634;18.310;2023-04-01T05:29:08;0.50;99.90
12386;DHT22;6257;57.634;18.310;2023-04-01T05:31:35;0.50;99.90
12386;DHT22;6257;57.634;18.310;2023-04-01T05:34:03;0.40;99.90
12386;DHT22;6257;57.634;18.310;2023-04-01T05:36:30;0.40;99.90
12386;DHT22;6257;57.634;18.310;2023-04-01T05:38:57;0.40;99.90
12386;DHT22;6257;57.634;18.310;2023-04-01T05:41:24;0.40;99.90
12386;DHT22;6257;57.634;18.310;2023-04-01T05:43:52;0.50;99.90
12386;DHT22;6257;57.634;18.310;2023-04-01T05:46:19;1.30;99.90
12386;DHT22;6257;57.634;18.310;2023-04-01T05:48:46;1.30;99.90
12386;DHT22;6257;57.634;18.310;2023-04-01T05:51:15;1.30;99.90
12386;DHT22;6257;57.634;18.310;2023-04-01T05:53:42;1.30;99.90
12386;DHT22;6257;57.634;18.310;2023-04-01T05:56:10;0.70;99.90
12386;DHT22;6257;57.634;18.310;2023-04-01T05:58:37;1.30;99.90
12386;DHT22;6257;57.634;18.310;2023-04-01T06:01:06;0.80;99.90
12386;DHT22;6257;57.634;18.310;2023-04-01T06:03:34;0.90;99.90
12386;DHT22;6257;57.634;18.310;2023-04-01T06:06:01;0.90;99.90
12386;DHT22;6257;57.634;18.310;2023-04-01T06:08:31;0.90;99.90
12386;DHT22;6257;57.634;18.310;2023-04-01T06:11:06;1.00;99.90
12386;DHT22;6257;57.634;18.310;2023-04-01T06:13:55;1.00;99.90
12386;DHT22;6257;57.634;18.310;2023-04-01T06:16:31;1.10;99.90
12386;DHT22;6257;57.634;18.310;2023-04-01T06:19:11;1.20;99.90
12386;DHT22;6257;57.634;18.310;2023-04-01T06:21:58;1.40;99.90
12386;DHT22;6257;57.634;18.310;2023-04-01T06:27:45;1.20;99.90
12386;DHT22;6257;57.634;18.310;2023-04-01T06:30:33;1.20;99.90
12386;DHT22;6257;57.634;18.310;2023-04-01T06:33:29;1.20;99.90
12386;DHT22;6257;57.634;18.310;2023-04-01T06:36:23;1.40;99.90
12386;DHT22;6257;57.634;18.310;2023-04-01T06:39:07;1.40;99.90
12386;DHT22;6257;57.634;18.310;2023-04-01T06:44:37;1.40;99.90
12386;DHT22;6257;57.634;18.310;2023-04-01T06:47:24;1.40;99.90
12386;DHT22;6257;57.634;18.310;2023-04-01T06:49:57;1.40;99.90
12386;DHT22;6257;57.634;18.310;2023-04-01T06:52:36;1.50;99.90
12386;DHT22;6257;57.634;18.310;2023-04-01T06:55:21;1.40;99.90
12386;DHT22;6257;57.634;18.310;2023-04-01T06:57:53;1.40;99.90
12386;DHT22;6257;57.634;18.310;2023-04-01T07:00:27;1.40;99.90
12386;DHT22;6257;57.634;18.310;2023-04-01T07:03:02;1.40;99.90
12386;DHT22;6257;57.634;18.310;2023-04-01T07:05:33;1.40;99.90
12386;DHT22;6257;57.634;18.310;2023-04-01T07:08:03;1.50;99.90
12386;DHT22;6257;57.634;18.310;2023-04-01T07:10:35;1.60;99.90
12386;DHT22;6257;57.634;18.310;2023-04-01T07:13:15;1.50;99.90
12386;DHT22;6257;57.634;18.310;2023-04-01T07:15:57;1.60;99.90
12386;DHT22;6257;57.634;18.310;2023-04-01T07:18:32;1.60;99.90
12386;DHT22;6257;57.634;18.310;2023-04-01T07:21:01;1.60;99.90
12386;DHT22;6257;57.634;18.310;2023-04-01T07:23:32;1.60;99.90
12386;DHT22;6257;57.634;18.310;2023-04-01T07:26:04;1.70;99.90
12386;DHT22;6257;57.634;18.310;2023-04-01T07:28:35;1.70;99.90
12386;DHT22;6257;57.634;18.310;2023-04-01T07:31:10;1.70;99.90
12386;DHT22;6257;57.634;18.310;2023-04-01T07:33:45;1.80;99.90
12386;DHT22;6257;57.634;18.310;2023-04-01T07:36:21;1.80;99.90
12386;DHT22;6257;57.634;18.310;2023-04-01T07:38:57;1.90;99.90
12386;DHT22;6257;57.634;18.310;2023-04-01T07:41:32;2.00;99.90
12386;DHT22;6257;57.634;18.310;2023-04-01T07:44:08;2.00;99.90
12386;DHT22;6257;57.634;18.310;2023-04-01T07:46:50;2.10;99.90
12386;DHT22;6257;57.634;18.310;2023-04-01T07:49:25;2.20;99.90
12386;DHT22;6257;57.634;18.310;2023-04-01T07:51:58;2.20;99.90
12386;DHT22;6257;57.634;18.310;2023-04-01T07:54:35;2.30;99.90
12386;DHT22;6257;57.634;18.310;2023-04-01T07:57:11;2.40;99.90
12386;DHT22;6257;57.634;18.310;2023-04-01T07:59:48;2.30;99.90
12386;DHT22;6257;57.634;18.310;2023-04-01T08:02:34;2.50;99.90
12386;DHT22;6257;57.634;18.310;2023-04-01T08:05:14;2.60;99.90
12386;DHT22;6257;57.634;18.310;2023-04-01T08:07:47;2.70;99.90
12386;DHT22;6257;57.634;18.310;2023-04-01T08:10:21;2.80;99.90
12386;DHT22;6257;57.634;18.310;2023-04-01T08:12:58;3.00;99.90
12386;DHT22;6257;57.634;18.310;2023-04-01T08:15:33;3.20;99.90
12386;DHT22;6257;57.634;18.310;2023-04-01T08:18:13;3.40;99.90
12386;DHT22;6257;57.634;18.310;2023-04-01T08:20:47;3.60;99.90
12386;DHT22;6257;57.634;18.310;2023-04-01T08:23:17;3.70;99.90
12386;DHT22;6257;57.634;18.310;2023-04-01T08:25:50;3.80;99.90
12386;DHT22;6257;57.634;18.310;2023-04-01T08:28:22;3.70;99.90
12386;DHT22;6257;57.634;18.310;2023-04-01T08:30:55;3.50;99.90
12386;DHT22;6257;57.634;18.310;2023-04-01T08:33:25;3.80;99.90
12386;DHT22;6257;57.634;18.310;2023-04-01T08:35:58;4.00;99.90
12386;DHT22;6257;57.634;18.310;2023-04-01T08:38:29;4.40;99.90
12386;DHT22;6257;57.634;18.310;2023-04-01T08:40:59;4.50;99.90
12386;DHT22;6257;57.634;18.310;2023-04-01T08:43:48;4.90;99.90
12386;DHT22;6257;57.634;18.310;2023-04-01T08:46:54;4.50;99.90
12386;DHT22;6257;57.634;18.310;2023-04-01T08:50:01;3.80;99.90
12386;DHT22;6257;57.634;18.310;2023-04-01T08:52:36;3.20;99.90
12386;DHT22;6257;57.634;18.310;2023-04-01T08:58:14;2.90;99.90
12386;DHT22;6257;57.634;18.310;2023-04-01T09:00:46;3.00;99.90
12386;DHT22;6257;57.634;18.310;2023-04-01T09:06:35;2.90;99.90
12386;DHT22;6257;57.634;18.310;2023-04-01T09:09:35;2.90;99.90
12386;DHT22;6257;57.634;18.310;2023-04-01T09:12:25;2.90;99.90
12386;DHT22;6257;57.634;18.310;2023-04-01T09:15:20;2.80;99.90
12386;DHT22;6257;57.634;18.310;2023-04-01T09:18:09;2.90;99.90
12386;DHT22;6257;57.634;18.310;2023-04-01T09:21:09;2.90;99.90
12386;DHT22;6257;57.634;18.310;2023-04-01T09:24:02;2.90;99.90
12386;DHT22;6257;57.634;18.310;2023-04-01T09:27:04;3.00;99.90
12386;DHT22;6257;57.634;18.310;2023-04-01T09:29:50;3.00;99.90
12386;DHT22;6257;57.634;18.310;2023-04-01T09:32:33;3.00;99.90
12386;DHT22;6257;57.634;18.310;2023-04-01T09:35:20;3.10;99.90
12386;DHT22;6257;57.634;18.310;2023-04-01T09:37:53;3.10;99.90
12386;DHT22;6257;57.634;18.310;2023-04-01T09:40:31;3.10;99.90
12386;DHT22;6257;57.634;18.310;2023-04-01T09:43:21;3.00;99.90
12386;DHT22;6257;57.634;18.310;2023-04-01T09:46:04;3.10;99.90
12386;DHT22;6257;57.634;18.310;2023-04-01T09:48:54;3.20;99.90
12386;DHT22;6257;57.634;18.310;2023-04-01T09:51:31;3.30;99.90
12386;DHT22;6257;57.634;18.310;2023-04-01T09:54:13;3.40;99.90
12386;DHT22;6257;57.634;18.310;2023-04-01T10:12:55;3.40;99.90
12386;DHT22;6257;57.634;18.310;2023-04-01T10:16:09;3.50;99.90
12386;DHT22;6257;57.634;18.310;2023-04-01T10:19:06;3.50;99.90
12386;DHT22;6257;57.634;18.310;2023-04-01T10:22:08;3.60;99.90
12386;DHT22;6257;57.634;18.310;2023-04-01T10:27:55;3.60;99.90
12386;DHT22;6257;57.634;18.310;2023-04-01T10:30:58;3.50;99.90
12386;DHT22;6257;57.634;18.310;2023-04-01T10:33:51;3.60;99.90
12386;DHT22;6257;57.634;18.310;2023-04-01T10:36:48;3.60;99.90
12386;DHT22;6257;57.634;18.310;2023-04-01T10:45:37;3.70;99.90
12386;DHT22;6257;57.634;18.310;2023-04-01T10:48:18;3.60;99.90
12386;DHT22;6257;57.634;18.310;2023-04-01T10:53:54;3.80;99.90
12386;DHT22;6257;57.634;18.310;2023-04-01T10:56:54;3.80;99.90
12386;DHT22;6257;57.634;18.310;2023-04-01T11:03:16;3.70;99.90
12386;DHT22;6257;57.634;18.310;2023-04-01T11:09:12;3.80;99.90
12386;DHT22;6257;57.634;18.310;2023-04-01T11:24:30;4.00;99.90
12386;DHT22;6257;57.634;18.310;2023-04-01T11:27:10;4.20;99.90
12386;DHT22;6257;57.634;18.310;2023-04-01T11:30:27;4.20;99.90
12386;DHT22;6257;57.634;18.310;2023-04-01T11:33:01;4.00;99.90
12386;DHT22;6257;57.634;18.310;2023-04-01T11:38:48;3.90;99.90
12386;DHT22;6257;57.634;18.310;2023-04-01T11:41:27;4.00;99.90
12386;DHT22;6257;57.634;18.310;2023-04-01T11:44:11;4.00;99.90
12386;DHT22;6257;57.634;18.310;2023-04-01T11:46:48;4.00;99.90
12386;DHT22;6257;57.634;18.310;2023-04-01T11:49:29;4.10;99.90
12386;DHT22;6257;57.634;18.310;2023-04-01T11:52:15;4.00;99.90
12386;DHT22;6257;57.634;18.310;2023-04-01T11:55:04;4.00;99.90
12386;DHT22;6257;57.634;18.310;2023-04-01T11:57:48;4.00;99.90
12386;DHT22;6257;57.634;18.310;2023-04-01T12:00:33;4.10;99.90
12386;DHT22;6257;57.634;18.310;2023-04-01T12:03:21;4.00;99.90
12386;DHT22;6257;57.634;18.310;2023-04-01T12:05:56;4.00;99.90
12386;DHT22;6257;57.634;18.310;2023-04-01T12:08:33;4.00;99.90
12386;DHT22;6257;57.634;18.310;2023-04-01T12:11:06;4.10;99.90
12386;DHT22;6257;57.634;18.310;2023-04-01T12:13:49;3.90;99.90
12386;DHT22;6257;57.634;18.310;2023-04-01T12:16:29;3.90;99.90
12386;DHT22;6257;57.634;18.310;2023-04-01T12:19:11;3.90;99.90
12386;DHT22;6257;57.634;18.310;2023-04-01T12:21:45;3.90;99.90
12386;DHT22;6257;57.634;18.310;2023-04-01T12:27:29;4.00;99.90
12386;DHT22;6257;57.634;18.310;2023-04-01T12:30:14;3.90;99.90
12386;DHT22;6257;57.634;18.310;2023-04-01T12:32:49;3.90;99.90
12386;DHT22;6257;57.634;18.310;2023-04-01T12:35:23;3.90;99.90
12386;DHT22;6257;57.634;18.310;2023-04-01T12:38:01;3.80;99.90
12386;DHT22;6257;57.634;18.310;2023-04-01T12:40:47;3.80;99.90
12386;DHT22;6257;57.634;18.310;2023-04-01T12:46:34;3.80;99.90
12386;DHT22;6257;57.634;18.310;2023-04-01T12:49:27;3.90;99.90
12386;DHT22;6257;57.634;18.310;2023-04-01T12:52:10;3.90;99.90
12386;DHT22;6257;57.634;18.310;2023-04-01T12:58:11;3.80;99.90
12386;DHT22;6257;57.634;18.310;2023-04-01T13:00:50;3.90;99.90
12386;DHT22;6257;57.634;18.310;2023-04-01T13:03:37;3.90;99.90
12386;DHT22;6257;57.634;18.310;2023-04-01T13:06:27;3.90;99.90
12386;DHT22;6257;57.634;18.310;2023-04-01T13:09:08;3.90;99.90
12386;DHT22;6257;57.634;18.310;2023-04-01T13:11:54;3.90;99.90
12386;DHT22;6257;57.634;18.310;2023-04-01T13:14:40;3.80;99.90
12386;DHT22;6257;57.634;18.310;2023-04-01T13:17:16;3.80;99.90
12386;DHT22;6257;57.634;18.310;2023-04-01T13:19:51;3.80;99.90
12386;DHT22;6257;57.634;18.310;2023-04-01T13:22:24;3.90;99.90
12386;DHT22;6257;57.634;18.310;2023-04-01T13:24:58;3.90;99.90
12386;DHT22;6257;57.634;18.310;2023-04-01T13:27:33;3.80;99.90
12386;DHT22;6257;57.634;18.310;2023-04-01T13:30:11;3.90;99.90
12386;DHT22;6257;57.634;18.310;2023-04-01T13:32:48;3.90;99.90
12386;DHT22;6257;57.634;18.310;2023-04-01T13:35:30;3.90;99.90
12386;DHT22;6257;57.634;18.310;2023-04-01T13:38:24;4.00;99.90
12386;DHT22;6257;57.634;18.310;2023-04-01T13:41:00;4.00;99.90
12386;DHT22;6257;57.634;18.310;2023-04-01T13:43:31;4.00;99.90
12386;DHT22;6257;57.634;18.310;2023-04-01T13:46:23;3.90;99.90
12386;DHT22;6257;57.634;18.310;2023-04-01T13:49:20;3.90;99.90
12386;DHT22;6257;57.634;18.310;2023-04-01T13:52:01;3.90;99.90
12386;DHT22;6257;57.634;18.310;2023-04-01T14:00:28;3.90;99.90
12386;DHT22;6257;57.634;18.310;2023-04-01T14:03:35;3.80;99.90
12386;DHT22;6257;57.634;18.310;2023-04-01T14:06:19;4.00;99.90
12386;DHT22;6257;57.634;18.310;2023-04-01T14:12:02;3.80;99.90
12386;DHT22;6257;57.634;18.310;2023-04-01T14:14:42;3.80;99.90
12386;DHT22;6257;57.634;18.310;2023-04-01T14:17:29;3.70;99.90
12386;DHT22;6257;57.634;18.310;2023-04-01T14:20:30;3.80;99.90
12386;DHT22;6257;57.634;18.310;2023-04-01T14:26:22;3.70;99.90
12386;DHT22;6257;57.634;18.310;2023-04-01T14:29:05;3.70;99.90
12386;DHT22;6257;57.634;18.310;2023-04-01T14:34:56;3.60;99.90
12386;DHT22;6257;57.634;18.310;2023-04-01T14:37:39;3.60;99.90
12386;DHT22;6257;57.634;18.310;2023-04-01T14:40:26;3.60;99.90
12386;DHT22;6257;57.634;18.310;2023-04-01T14:46:23;3.60;99.90
12386;DHT22;6257;57.634;18.310;2023-04-01T14:48:57;3.50;99.90
12386;DHT22;6257;57.634;18.310;2023-04-01T14:51:30;3.50;99.90
12386;DHT22;6257;57.634;18.310;2023-04-01T14:54:04;3.50;99.90
12386;DHT22;6257;57.634;18.310;2023-04-01T14:56:36;3.40;99.90
12386;DHT22;6257;57.634;18.310;2023-04-01T14:59:09;3.30;99.90
12386;DHT22;6257;57.634;18.310;2023-04-01T15:01:46;3.40;99.90
12386;DHT22;6257;57.634;18.310;2023-04-01T15:13:57;3.30;99.90
12386;DHT22;6257;57.634;18.310;2023-04-01T15:16:36;3.40;99.90
12386;DHT22;6257;57.634;18.310;2023-04-01T15:19:14;3.40;99.90
12386;DHT22;6257;57.634;18.310;2023-04-01T15:22:01;3.30;99.90
12386;DHT22;6257;57.634;18.310;2023-04-01T15:24:41;3.20;99.90
12386;DHT22;6257;57.634;18.310;2023-04-01T15:27:31;3.30;99.90
12386;DHT22;6257;57.634;18.310;2023-04-01T15:30:32;3.30;99.90
12386;DHT22;6257;57.634;18.310;2023-04-01T15:36:01;3.20;99.90
12386;DHT22;6257;57.634;18.310;2023-04-01T15:38:36;3.20;99.90
12386;DHT22;6257;57.634;18.310;2023-04-01T15:41:14;3.30;99.90
12386;DHT22;6257;57.634;18.310;2023-04-01T15:43:43;3.30;99.90
12386;DHT22;6257;57.634;18.310;2023-04-01T15:46:41;3.20;99.90
12386;DHT22;6257;57.634;18.310;2023-04-01T15:49:19;3.30;99.90
12386;DHT22;6257;57.634;18.310;2023-04-01T15:52:11;3.20;99.90
12386;DHT22;6257;57.634;18.310;2023-04-01T15:54:59;3.20;99.90
12386;DHT22;6257;57.634;18.310;2023-04-01T15:57:37;3.10;99.90
12386;DHT22;6257;57.634;18.310;2023-04-01T16:00:17;3.20;99.90
12386;DHT22;6257;57.634;18.310;2023-04-01T16:02:48;3.10;99.90
12386;DHT22;6257;57.634;18.310;2023-04-01T16:05:27;3.20;99.90
12386;DHT22;6257;57.634;18.310;2023-04-01T16:11:14;3.10;99.90
12386;DHT22;6257;57.634;18.310;2023-04-01T16:13:53;3.10;99.90
12386;DHT22;6257;57.634;18.310;2023-04-01T16:16:30;3.10;99.90
12386;DHT22;6257;57.634;18.310;2023-04-01T16:19:11;3.00;99.90
12386;DHT22;6257;57.634;18.310;2023-04-01T16:21:44;3.00;99.90
12386;DHT22;6257;57.634;18.310;2023-04-01T16:24:19;3.00;99.90
12386;DHT22;6257;57.634;18.310;2023-04-01T16:26:53;3.00;99.90
12386;DHT22;6257;57.634;18.310;2023-04-01T16:29:27;2.90;99.90
12386;DHT22;6257;57.634;18.310;2023-04-01T16:32:08;2.90;99.90
12386;DHT22;6257;57.634;18.310;2023-04-01T16:34:41;2.90;99.90
12386;DHT22;6257;57.634;18.310;2023-04-01T16:37:14;2.80;99.90
12386;DHT22;6257;57.634;18.310;2023-04-01T16:39:49;2.80;99.90
12386;DHT22;6257;57.634;18.310;2023-04-01T16:42:35;2.70;99.90
12386;DHT22;6257;57.634;18.310;2023-04-01T16:45:25;2.70;99.90
12386;DHT22;6257;57.634;18.310;2023-04-01T16:47:58;2.70;99.90
12386;DHT22;6257;57.634;18.310;2023-04-01T16:50:37;2.60;99.90
12386;DHT22;6257;57.634;18.310;2023-04-01T16:53:14;2.60;99.90
12386;DHT22;6257;57.634;18.310;2023-04-01T16:55:50;2.50;99.90
12386;DHT22;6257;57.634;18.310;2023-04-01T16:58:23;2.50;99.90
12386;DHT22;6257;57.634;18.310;2023-04-01T17:00:55;2.40;99.90
12386;DHT22;6257;57.634;18.310;2023-04-01T17:03:28;2.30;99.90
12386;DHT22;6257;57.634;18.310;2023-04-01T17:06:04;2.30;99.90
12386;DHT22;6257;57.634;18.310;2023-04-01T17:08:45;2.20;99.90
12386;DHT22;6257;57.634;18.310;2023-04-01T17:11:21;2.20;99.90
12386;DHT22;6257;57.634;18.310;2023-04-01T17:13:58;2.10;99.90
12386;DHT22;6257;57.634;18.310;2023-04-01T17:16:55;2.20;99.90
12386;DHT22;6257;57.634;18.310;2023-04-01T17:19:42;2.10;99.90
12386;DHT22;6257;57.634;18.310;2023-04-01T17:22:32;2.20;99.90
12386;DHT22;6257;57.634;18.310;2023-04-01T17:25:17;2.00;99.90
12386;DHT22;6257;57.634;18.310;2023-04-01T17:27:51;2.00;99.90
12386;DHT22;6257;57.634;18.310;2023-04-01T17:30:28;1.90;99.90
12386;DHT22;6257;57.634;18.310;2023-04-01T17:33:27;1.80;99.90
12386;DHT22;6257;57.634;18.310;2023-04-01T17:35:59;1.80;99.90
12386;DHT22;6257;57.634;18.310;2023-04-01T17:38:46;1.80;99.90
12386;DHT22;6257;57.634;18.310;2023-04-01T17:41:25;1.70;99.90
12386;DHT22;6257;57.634;18.310;2023-04-01T17:44:03;1.60;99.90
12386;DHT22;6257;57.634;18.310;2023-04-01T17:46:37;1.60;99.90
12386;DHT22;6257;57.634;18.310;2023-04-01T17:49:19;1.60;99.90
12386;DHT22;6257;57.634;18.310;2023-04-01T17:51:55;1.50;99.90
12386;DHT22;6257;57.634;18.310;2023-04-01T17:54:33;1.50;99.90
12386;DHT22;6257;57.634;18.310;2023-04-01T17:57:21;1.40;99.90
12386;DHT22;6257;57.634;18.310;2023-04-01T18:00:00;1.40;99.90
12386;DHT22;6257;57.634;18.310;2023-04-01T18:02:35;1.30;99.90
12386;DHT22;6257;57.634;18.310;2023-04-01T18:05:27;1.30;99.90
12386;DHT22;6257;57.634;18.310;2023-04-01T18:08:12;1.40;99.90
12386;DHT22;6257;57.634;18.310;2023-04-01T18:10:52;1.30;99.90
12386;DHT22;6257;57.634;18.310;2023-04-01T18:13:57;1.30;99.90
12386;DHT22;6257;57.634;18.310;2023-04-01T18:19:30;1.40;99.90
12386;DHT22;6257;57.634;18.310;2023-04-01T18:22:07;1.30;99.90
12386;DHT22;6257;57.634;18.310;2023-04-01T18:24:41;1.40;99.90
12386;DHT22;6257;57.634;18.310;2023-04-01T18:27:15;1.30;99.90
12386;DHT22;6257;57.634;18.310;2023-04-01T18:29:48;1.30;99.90
12386;DHT22;6257;57.634;18.310;2023-04-01T18:32:26;1.30;99.90
12386;DHT22;6257;57.634;18.310;2023-04-01T18:35:02;1.30;99.90
12386;DHT22;6257;57.634;18.310;2023-04-01T18:37:41;1.30;99.90